createdAt,value
2018-04-19T00:03:57.839Z,33.69
2018-04-19T00:06:37.858Z,33.95
2018-04-19T00:09:16.211Z,33.97
2018-04-19T00:11:54.830Z,33.96
2018-04-19T00:14:37.006Z,33.92
2018-04-19T00:17:16.202Z,34.02
2018-04-19T00:19:59.272Z,34.13
2018-04-19T00:22:37.839Z,33.81
2018-04-19T00:25:17.016Z,33.60
2018-04-19T00:27:57.734Z,33.85
2018-04-19T00:30:36.368Z,33.40
2018-04-19T00:33:15.856Z,33.13
2018-04-19T00:35:56.326Z,32.84
2018-04-19T00:38:34.976Z,33.18
2018-04-19T00:41:13.710Z,33.44
2018-04-19T00:43:53.317Z,33.58
2018-04-19T00:46:31.751Z,33.40
2018-04-19T00:49:10.356Z,33.32
2018-04-19T00:51:49.098Z,33.08
2018-04-19T00:54:27.733Z,33.59
2018-04-19T00:57:06.596Z,33.33
2018-04-19T00:59:45.199Z,33.69
2018-04-19T01:02:23.599Z,33.82
2018-04-19T01:05:02.170Z,33.16
2018-04-19T01:07:44.471Z,32.97
2018-04-19T01:10:23.370Z,33.07
2018-04-19T01:13:02.659Z,33.12
2018-04-19T01:15:41.779Z,33.01
2018-04-19T01:18:21.170Z,33.65
2018-04-19T01:21:04.429Z,33.53
2018-04-19T01:23:42.991Z,33.31
2018-04-19T01:26:23.615Z,33.21
2018-04-19T01:29:07.256Z,32.99
2018-04-19T01:31:45.905Z,33.48
2018-04-19T01:34:27.232Z,32.25
2018-04-19T01:37:06.968Z,32.70
2018-04-19T01:39:45.408Z,33.00
2018-04-19T01:42:26.566Z,32.95
2018-04-19T01:45:05.150Z,33.04
2018-04-19T01:47:43.922Z,33.11
2018-04-19T01:50:23.682Z,33.02
2018-04-19T01:53:03.131Z,33.02
2018-04-19T01:55:42.701Z,33.18
2018-04-19T01:58:21.289Z,33.04
2018-04-19T02:01:00.114Z,32.73
2018-04-19T02:03:39.353Z,33.06
2018-04-19T02:06:18.602Z,32.50
2018-04-19T02:08:56.989Z,32.93
2018-04-19T02:11:36.122Z,32.80
2018-04-19T02:14:15.495Z,32.59
2018-04-19T02:16:54.858Z,32.34
2018-04-19T02:19:38.235Z,32.58
2018-04-19T02:22:17.889Z,32.71
2018-04-19T02:24:56.191Z,32.41
2018-04-19T02:27:35.330Z,32.55
2018-04-19T02:30:13.398Z,32.71
2018-04-19T02:32:51.841Z,32.38
2018-04-19T02:35:34.077Z,32.55
2018-04-19T02:38:13.443Z,32.56
2018-04-19T02:40:51.702Z,32.26
2018-04-19T02:43:32.783Z,32.12
2018-04-19T02:46:11.173Z,32.24
2018-04-19T02:48:49.879Z,32.16
2018-04-19T02:51:28.591Z,32.05
2018-04-19T02:54:07.134Z,32.19
2018-04-19T02:56:46.747Z,32.35
2018-04-19T02:59:26.144Z,32.02
2018-04-19T03:02:05.227Z,32.12
2018-04-19T03:04:43.664Z,32.21
2018-04-19T03:07:28.231Z,32.49
2018-04-19T03:10:07.037Z,31.98
2018-04-19T03:12:46.549Z,31.94
2018-04-19T03:15:25.417Z,32.19
2018-04-19T03:18:04.786Z,32.34
2018-04-19T03:20:43.656Z,31.98
2018-04-19T03:23:23.040Z,32.36
2018-04-19T03:26:01.520Z,32.49
2018-04-19T03:28:40.579Z,32.54
2018-04-19T03:31:22.630Z,32.51
2018-04-19T03:34:02.054Z,31.92
2018-04-19T03:36:41.467Z,31.66
2018-04-19T03:39:23.525Z,31.92
2018-04-19T03:42:02.088Z,31.17
2018-04-19T03:44:40.678Z,31.09
2018-04-19T03:47:23.401Z,31.16
2018-04-19T03:50:02.793Z,31.46
2018-04-19T03:52:41.496Z,31.60
2018-04-19T03:55:23.220Z,31.55
2018-04-19T03:58:01.784Z,31.33
2018-04-19T04:00:40.887Z,31.09
2018-04-19T04:03:25.612Z,31.35
2018-04-19T04:06:03.873Z,31.45
2018-04-19T04:08:42.308Z,31.58
2018-04-19T04:11:26.939Z,31.19
2018-04-19T04:14:06.350Z,31.31
2018-04-19T04:18:14.215Z,31.01
2018-04-19T04:21:22.138Z,31.57
2018-04-19T04:24:03.899Z,31.21
2018-04-19T04:26:45.519Z,31.40
2018-04-19T04:29:25.164Z,31.44
2018-04-19T04:32:03.854Z,31.37
2018-04-19T04:34:44.119Z,31.65
2018-04-19T04:37:25.633Z,31.49
2018-04-19T04:40:06.713Z,31.89
2018-04-19T04:42:48.611Z,31.96
2018-04-19T04:45:28.752Z,31.73
2018-04-19T04:48:14.460Z,31.99
2018-04-19T04:50:52.952Z,31.40
2018-04-19T04:53:33.989Z,31.87
2018-04-19T04:56:13.050Z,31.94
2018-04-19T04:58:51.378Z,31.38
2018-04-19T05:01:33.593Z,31.62
2018-04-19T05:04:12.894Z,32.01
2018-04-19T05:06:54.987Z,31.43
2018-04-19T05:09:33.228Z,30.75
2018-04-19T05:12:11.840Z,31.41
2018-04-19T05:14:56.188Z,31.03
2018-04-19T05:17:34.659Z,31.04
2018-04-19T05:20:14.305Z,31.77
2018-04-19T05:22:56.602Z,31.95
2018-04-19T05:25:34.980Z,32.97
2018-04-19T05:28:15.451Z,32.29
2018-04-19T05:30:55.328Z,32.00
2018-04-19T05:33:33.645Z,31.73
2018-04-19T05:36:18.985Z,31.70
2018-04-19T05:38:57.961Z,31.51
2018-04-19T05:41:41.765Z,31.50
2018-04-19T05:44:19.980Z,32.64
2018-04-19T05:46:58.856Z,31.82
2018-04-19T05:49:44.773Z,32.78
2018-04-19T05:52:34.909Z,33.34
2018-04-19T05:55:18.705Z,33.14
2018-04-19T05:57:59.566Z,33.41
2018-04-19T06:00:41.201Z,34.24
2018-04-19T06:03:23.043Z,34.18
2018-04-19T06:06:01.384Z,33.23
2018-04-19T06:08:43.068Z,33.13
2018-04-19T06:11:21.857Z,34.08
2018-04-19T06:14:11.045Z,33.86
2018-04-19T06:16:55.434Z,33.76
2018-04-19T06:19:39.416Z,33.93
2018-04-19T06:22:21.494Z,34.11
2018-04-19T06:25:01.351Z,33.53
2018-04-19T06:27:43.887Z,33.61
2018-04-19T06:30:22.823Z,34.13
2018-04-19T06:33:01.449Z,34.71
2018-04-19T06:35:43.093Z,34.02
2018-04-19T06:38:22.134Z,34.73
2018-04-19T06:43:59.572Z,34.34
2018-04-19T06:46:47.486Z,34.51
2018-04-19T06:49:26.054Z,35.18
2018-04-19T06:52:07.477Z,36.13
2018-04-19T06:54:48.714Z,35.54
2018-04-19T06:57:27.891Z,36.07
2018-04-19T07:00:10.127Z,35.26
2018-04-19T07:02:49.185Z,35.32
2018-04-19T07:05:28.613Z,36.78
2018-04-19T07:08:08.727Z,36.80
2018-04-19T07:10:48.128Z,36.87
2018-04-19T07:13:26.511Z,37.12
2018-04-19T07:16:08.485Z,37.30
2018-04-19T07:18:47.965Z,36.87
2018-04-19T07:21:26.302Z,37.80
2018-04-19T07:24:10.630Z,37.02
2018-04-19T07:26:49.153Z,37.19
2018-04-19T07:29:27.724Z,37.43
2018-04-19T07:32:09.423Z,37.00
2018-04-19T07:34:48.434Z,37.48
2018-04-19T07:37:31.502Z,37.46
2018-04-19T07:40:09.948Z,37.43
2018-04-19T07:42:50.447Z,37.61
2018-04-19T07:45:29.861Z,38.30
2018-04-19T07:48:09.816Z,38.74
2018-04-19T07:50:52.464Z,38.18
2018-04-19T07:53:30.824Z,38.72
2018-04-19T07:56:11.792Z,38.34
2018-04-19T07:58:50.964Z,38.87
2018-04-19T08:01:35.839Z,38.77
2018-04-19T08:04:14.525Z,38.50
2018-04-19T08:06:52.776Z,38.51
2018-04-19T08:09:34.593Z,38.69
2018-04-19T08:12:12.894Z,39.82
2018-04-19T08:14:53.782Z,40.28
2018-04-19T08:17:34.484Z,40.25
2018-04-19T08:20:14.953Z,39.67
2018-04-19T08:22:57.973Z,40.04
2018-04-19T08:25:36.429Z,40.80
2018-04-19T08:28:16.516Z,41.46
2018-04-19T08:30:56.889Z,41.21
2018-04-19T08:33:35.341Z,40.80
2018-04-19T08:36:14.663Z,41.00
2018-04-19T08:38:57.892Z,41.04
2018-04-19T08:41:35.881Z,41.46
2018-04-19T08:44:17.179Z,42.33
2018-04-19T08:46:57.344Z,41.42
2018-04-19T08:49:38.176Z,41.99
2018-04-19T08:52:19.491Z,41.94
2018-04-19T08:54:57.835Z,41.63
2018-04-19T08:57:40.529Z,42.01
2018-04-19T09:00:19.655Z,42.94
2018-04-19T09:02:58.081Z,42.33
2018-04-19T09:05:39.374Z,41.95
2018-04-19T09:08:20.297Z,42.12
2018-04-19T09:10:59.765Z,43.14
2018-04-19T09:13:43.875Z,43.57
2018-04-19T09:16:22.654Z,44.31
2018-04-19T09:19:03.051Z,43.84
2018-04-19T09:21:44.555Z,43.50
2018-04-19T09:24:22.757Z,43.98
2018-04-19T09:27:02.929Z,43.49
2018-04-19T09:29:43.832Z,43.69
2018-04-19T09:32:22.497Z,44.22
2018-04-19T09:35:04.118Z,44.57
2018-04-19T09:37:43.652Z,43.95
2018-04-19T09:40:23.752Z,43.44
2018-04-19T09:43:09.019Z,44.60
2018-04-19T09:45:47.917Z,44.63
2018-04-19T09:48:29.294Z,43.91
2018-04-19T09:51:08.699Z,44.41
2018-04-19T09:53:47.424Z,44.99
2018-04-19T09:56:29.756Z,44.90
2018-04-19T09:59:14.046Z,43.72
2018-04-19T10:01:52.638Z,44.39
2018-04-19T10:04:31.361Z,44.74
2018-04-19T10:07:10.526Z,44.44
2018-04-19T10:09:49.505Z,44.03
2018-04-19T10:12:31.117Z,42.95
2018-04-19T10:15:09.463Z,43.85
2018-04-19T10:17:49.817Z,44.41
2018-04-19T10:20:33.934Z,45.19
2018-04-19T10:23:12.351Z,45.09
2018-04-19T10:25:51.818Z,45.89
2018-04-19T10:28:34.683Z,45.47
2018-04-19T10:31:13.044Z,45.21
2018-04-19T10:33:51.318Z,44.61
2018-04-19T10:36:33.376Z,44.68
2018-04-19T10:39:13.180Z,45.72
2018-04-19T10:41:52.348Z,46.06
2018-04-19T10:44:33.340Z,45.61
2018-04-19T10:47:11.979Z,45.25
2018-04-19T10:49:51.150Z,44.54
2018-04-19T10:52:33.646Z,43.20
2018-04-19T10:55:12.069Z,44.70
2018-04-19T10:57:55.543Z,44.21
2018-04-19T11:00:34.616Z,44.99
2018-04-19T11:03:19.430Z,44.50
2018-04-19T11:05:58.120Z,44.56
2018-04-19T11:08:37.410Z,45.15
2018-04-19T11:11:16.880Z,45.55
2018-04-19T11:14:00.354Z,44.05
2018-04-19T11:16:40.741Z,44.22
2018-04-19T11:19:22.848Z,44.23
2018-04-19T11:22:01.975Z,44.98
2018-04-19T11:24:41.111Z,45.96
2018-04-19T11:27:28.227Z,45.46
2018-04-19T11:30:11.081Z,45.66
2018-04-19T11:32:59.629Z,45.28
2018-04-19T11:35:38.792Z,44.57
2018-04-19T11:38:19.051Z,46.26
2018-04-19T11:41:01.232Z,46.15
2018-04-19T11:43:41.077Z,46.82
2018-04-19T11:46:23.488Z,44.85
2018-04-19T11:49:02.062Z,45.05
2018-04-19T11:51:40.668Z,44.41
2018-04-19T11:54:25.472Z,45.28
2018-04-19T11:57:06.832Z,44.81
2018-04-19T11:59:45.113Z,46.72
2018-04-19T12:02:26.693Z,45.55
2018-04-19T12:05:08.942Z,44.70
2018-04-19T12:10:41.174Z,44.23
2018-04-19T12:13:25.728Z,44.57
2018-04-19T12:16:08.363Z,43.68
2018-04-19T12:18:47.497Z,44.90
2018-04-19T12:21:35.193Z,44.81
2018-04-19T12:27:08.307Z,44.54
2018-04-19T12:29:49.077Z,45.61
2018-04-19T12:32:27.623Z,46.11
2018-04-19T12:35:08.587Z,45.71
2018-04-19T12:37:47.603Z,45.97
2018-04-19T12:40:27.893Z,45.26
2018-04-19T12:43:06.181Z,45.44
2018-04-19T12:45:46.713Z,46.41
2018-04-19T12:48:27.032Z,45.54
2018-04-19T12:51:07.061Z,44.73
2018-04-19T12:53:46.517Z,44.41
2018-04-19T12:56:30.388Z,46.20
2018-04-19T12:59:09.541Z,46.14
2018-04-19T13:01:48.127Z,46.56
2018-04-19T13:04:30.721Z,45.58
2018-04-19T13:07:11.946Z,45.63
2018-04-19T13:09:51.330Z,47.04
2018-04-19T13:12:33.417Z,47.05
2018-04-19T13:15:13.458Z,46.38
2018-04-19T13:17:51.866Z,45.82
2018-04-19T13:20:34.524Z,44.86
2018-04-19T13:23:13.570Z,46.03
2018-04-19T13:25:52.044Z,47.23
2018-04-19T13:28:34.776Z,46.64
2018-04-19T13:31:13.313Z,45.28
2018-04-19T13:33:52.436Z,46.68
2018-04-19T13:36:35.310Z,46.55
2018-04-19T13:39:13.552Z,47.19
2018-04-19T13:41:53.959Z,47.57
2018-04-19T13:44:37.011Z,47.31
2018-04-19T13:47:15.223Z,47.38
2018-04-19T13:49:56.953Z,47.12
2018-04-19T13:52:35.716Z,48.63
2018-04-19T13:55:14.246Z,46.26
2018-04-19T13:57:56.705Z,46.89
2018-04-19T14:00:37.706Z,45.84
2018-04-19T14:03:17.080Z,47.18
2018-04-19T14:05:59.344Z,47.11
2018-04-19T14:08:37.925Z,46.43
2018-04-19T14:11:18.220Z,46.68
2018-04-19T14:14:02.408Z,46.93
2018-04-19T14:16:41.899Z,46.74
2018-04-19T14:19:23.461Z,48.15
2018-04-19T14:22:02.416Z,46.92
2018-04-19T14:24:40.552Z,46.63
2018-04-19T14:27:30.915Z,48.25
2018-04-19T14:30:18.331Z,47.49
2018-04-19T14:33:00.518Z,46.99
2018-04-19T14:35:39.392Z,47.99
2018-04-19T14:38:21.499Z,47.31
2018-04-19T14:40:59.928Z,48.36
2018-04-19T14:43:40.639Z,48.89
2018-04-19T14:46:20.535Z,47.53
2018-04-19T14:49:01.831Z,47.63
2018-04-19T14:51:42.578Z,46.69
2018-04-19T14:54:23.257Z,47.42
2018-04-19T14:57:02.673Z,47.97
2018-04-19T14:59:44.804Z,48.77
2018-04-19T15:02:24.735Z,48.36
2018-04-19T15:05:03.313Z,47.96
2018-04-19T15:07:47.000Z,47.24
2018-04-19T15:10:25.648Z,47.52
2018-04-19T15:13:07.000Z,47.80
2018-04-19T15:15:45.441Z,48.27
2018-04-19T15:18:25.210Z,49.19
2018-04-19T15:21:06.006Z,48.79
2018-04-19T15:23:45.572Z,47.94
2018-04-19T15:26:29.157Z,47.46
2018-04-19T15:29:08.656Z,47.62
2018-04-19T15:31:47.169Z,48.45
2018-04-19T15:34:30.945Z,47.53
2018-04-19T15:37:10.078Z,48.06
2018-04-19T15:39:48.535Z,47.86
2018-04-19T15:42:33.704Z,47.15
2018-04-19T15:45:12.112Z,47.70
2018-04-19T15:47:50.180Z,47.67
2018-04-19T15:50:31.470Z,47.70
2018-04-19T15:53:10.666Z,48.58
2018-04-19T15:55:48.940Z,48.36
2018-04-19T15:58:32.612Z,48.22
2018-04-19T16:01:11.469Z,47.30
2018-04-19T16:03:50.543Z,48.10
2018-04-19T16:06:33.408Z,48.30
2018-04-19T16:09:13.617Z,48.31
2018-04-19T16:11:53.083Z,48.83
2018-04-19T16:14:35.125Z,46.75
2018-04-19T16:17:13.892Z,47.03
2018-04-19T16:19:53.755Z,46.28
2018-04-19T16:22:34.962Z,47.81
2018-04-19T16:25:14.292Z,48.52
2018-04-19T16:27:56.577Z,47.71
2018-04-19T16:30:35.532Z,48.16
2018-04-19T16:33:14.035Z,48.72
2018-04-19T16:36:01.311Z,50.44
2018-04-19T16:38:39.994Z,51.24
2018-04-19T16:41:20.112Z,50.82
2018-04-19T16:44:01.783Z,49.55
2018-04-19T16:46:40.144Z,49.50
2018-04-19T16:49:19.808Z,50.63
2018-04-19T16:52:04.177Z,51.56
2018-04-19T16:54:42.752Z,52.34
2018-04-19T16:57:21.805Z,51.45
2018-04-19T17:00:04.564Z,51.32
2018-04-19T17:02:45.256Z,52.27
2018-04-19T17:05:24.528Z,52.75
2018-04-19T17:08:05.846Z,51.86
2018-04-19T17:10:44.445Z,51.69
2018-04-19T17:13:23.602Z,51.15
2018-04-19T17:16:04.875Z,50.81
2018-04-19T17:18:43.256Z,50.44
2018-04-19T17:21:21.819Z,51.55
2018-04-19T17:24:03.375Z,52.00
2018-04-19T17:26:41.750Z,51.81
2018-04-19T17:29:20.629Z,50.32
2018-04-19T17:32:02.810Z,51.13
2018-04-19T17:34:42.204Z,49.82
2018-04-19T17:37:20.426Z,49.11
2018-04-19T17:40:04.108Z,47.59
2018-04-19T17:42:43.501Z,46.99
2018-04-19T17:45:22.152Z,47.33
2018-04-19T17:48:06.253Z,46.70
2018-04-19T17:50:45.727Z,47.43
2018-04-19T17:53:24.299Z,46.33
2018-04-19T17:56:06.819Z,47.10
2018-04-19T17:58:50.035Z,46.64
2018-04-19T18:01:29.252Z,46.87
2018-04-19T18:04:09.966Z,46.63
2018-04-19T18:06:48.548Z,46.25
2018-04-19T18:09:27.450Z,45.45
2018-04-19T18:12:10.371Z,45.39
2018-04-19T18:14:50.315Z,45.48
2018-04-19T18:17:29.150Z,46.18
2018-04-19T18:20:07.733Z,46.29
2018-04-19T18:22:47.806Z,45.22
2018-04-19T18:25:30.880Z,44.85
2018-04-19T18:28:11.040Z,45.61
2018-04-19T18:30:56.003Z,44.75
2018-04-19T18:33:34.362Z,45.32
2018-04-19T18:36:12.659Z,45.13
2018-04-19T18:38:53.801Z,45.25
2018-04-19T18:41:32.178Z,45.48
2018-04-19T18:44:10.717Z,44.65
2018-04-19T18:46:51.936Z,43.53
2018-04-19T18:49:30.694Z,43.92
2018-04-19T18:52:15.525Z,43.69
2018-04-19T19:02:56.127Z,42.96
2018-04-19T19:05:52.384Z,42.21
2018-04-19T19:08:35.980Z,42.54
2018-04-19T19:11:26.468Z,42.94
2018-04-19T19:14:07.794Z,42.73
2018-04-19T19:16:58.847Z,43.01
2018-04-19T19:20:18.656Z,43.20
2018-04-19T19:23:08.352Z,43.46
2018-04-19T19:25:56.152Z,43.78
2018-04-19T19:31:34.771Z,43.35
2018-04-19T19:37:19.147Z,43.19
2018-04-19T19:42:58.275Z,42.95
2018-04-19T19:45:51.230Z,42.31
2018-04-19T19:48:34.154Z,42.64
2018-04-19T19:51:26.167Z,43.00
2018-04-19T19:54:16.238Z,42.86
2018-04-19T19:57:09.732Z,43.14
2018-04-19T20:00:07.064Z,41.65
2018-04-19T20:07:58.075Z,42.45
2018-04-19T20:10:47.386Z,42.11
2018-04-19T20:13:26.395Z,41.94
2018-04-19T20:16:05.802Z,42.00
2018-04-19T20:21:42.195Z,40.85
2018-04-19T20:24:24.792Z,41.23
2018-04-19T20:27:05.183Z,41.54
2018-04-19T20:29:44.367Z,41.48
2018-04-19T20:32:24.874Z,41.64
2018-04-19T20:35:03.965Z,41.78
2018-04-19T20:37:43.121Z,41.86
2018-04-19T20:40:23.831Z,41.14
2018-04-19T20:43:02.271Z,41.33
2018-04-19T20:45:42.309Z,41.08
2018-04-19T20:48:21.238Z,41.05
2018-04-19T20:51:00.664Z,41.06
2018-04-19T20:53:44.592Z,40.87
2018-04-19T20:56:27.617Z,41.03
2018-04-19T20:59:08.705Z,40.96
2018-04-19T21:01:49.620Z,40.87
2018-04-19T21:04:28.255Z,40.81
2018-04-19T21:07:07.859Z,40.53
2018-04-19T21:09:47.909Z,40.30
2018-04-19T21:12:28.001Z,40.38
2018-04-19T21:15:08.921Z,40.37
2018-04-19T21:17:48.665Z,40.07
2018-04-19T21:20:31.305Z,39.76
2018-04-19T21:23:10.729Z,39.65
2018-04-19T21:25:49.716Z,39.84
2018-04-19T21:28:33.930Z,39.80
2018-04-19T21:31:13.342Z,39.70
2018-04-19T21:33:56.841Z,39.26
2018-04-19T21:36:36.033Z,39.03
2018-04-19T21:39:15.281Z,38.98
2018-04-19T21:41:55.799Z,39.24
2018-04-19T21:44:34.968Z,39.16
2018-04-19T21:47:14.894Z,38.98
2018-04-19T21:49:54.264Z,38.89
2018-04-19T21:52:32.864Z,39.29
2018-04-19T21:55:16.491Z,39.22
2018-04-19T21:57:55.001Z,39.21
2018-04-19T22:00:33.322Z,39.36
2018-04-19T22:03:16.437Z,39.17
2018-04-19T22:05:54.756Z,38.84
2018-04-19T22:08:34.524Z,38.27
2018-04-19T22:11:17.409Z,38.17
2018-04-19T22:13:57.205Z,38.26
2018-04-19T22:16:35.828Z,38.21
2018-04-19T22:19:22.135Z,38.38
2018-04-19T22:22:00.811Z,38.59
2018-04-19T22:24:39.631Z,38.34
2018-04-19T22:27:20.307Z,37.99
2018-04-19T22:30:00.339Z,38.31
2018-04-19T22:32:39.669Z,38.06
2018-04-19T22:35:20.667Z,38.65
2018-04-19T22:37:59.351Z,38.80
2018-04-19T22:40:38.075Z,38.75
2018-04-19T22:43:20.277Z,38.68
2018-04-19T22:45:58.964Z,38.20
2018-04-19T22:48:37.482Z,37.95
2018-04-19T22:51:18.737Z,38.23
2018-04-19T22:53:57.653Z,38.09
2018-04-19T22:56:36.997Z,37.83
2018-04-19T22:59:17.370Z,37.96
2018-04-19T23:01:56.061Z,37.91
2018-04-19T23:04:35.108Z,38.20
2018-04-19T23:07:14.875Z,38.07
2018-04-19T23:09:54.040Z,38.28
2018-04-19T23:12:33.775Z,37.94
2018-04-19T23:15:16.219Z,38.15
2018-04-19T23:17:56.305Z,37.83
2018-04-19T23:20:37.863Z,37.77
2018-04-19T23:23:17.536Z,37.43
2018-04-19T23:25:57.617Z,37.76
2018-04-19T23:28:45.434Z,37.98
2018-04-19T23:31:25.435Z,37.84
2018-04-19T23:34:04.113Z,37.55
2018-04-19T23:36:47.091Z,37.45
2018-04-19T23:39:26.056Z,37.47
2018-04-19T23:42:04.573Z,37.56
2018-04-19T23:44:48.088Z,37.35
2018-04-19T23:47:27.432Z,37.30
2018-04-19T23:50:06.292Z,37.00
2018-04-19T23:52:47.768Z,37.03
2018-04-19T23:55:25.990Z,36.76
2018-04-19T23:58:06.125Z,36.67
